sensor_id;sensor_type;location;lat;lon;timestamp;P1;durP1;ratioP1;P2;durP2;ratioP2
12707;SDS011;6418;50.824;4.718;2023-11-21T00:01:10;148.13;;;49.30;;
12707;SDS011;6418;50.824;4.718;2023-11-21T00:03:37;159.30;;;51.47;;
12707;SDS011;6418;50.824;4.718;2023-11-21T00:06:06;150.60;;;49.50;;
12707;SDS011;6418;50.824;4.718;2023-11-21T00:08:34;143.87;;;48.63;;
12707;SDS011;6418;50.824;4.718;2023-11-21T00:11:01;145.37;;;50.73;;
12707;SDS011;6418;50.824;4.718;2023-11-21T00:13:30;152.37;;;49.23;;
12707;SDS011;6418;50.824;4.718;2023-11-21T00:15:57;152.40;;;48.97;;
12707;SDS011;6418;50.824;4.718;2023-11-21T00:18:24;138.97;;;46.57;;
12707;SDS011;6418;50.824;4.718;2023-11-21T00:20:51;140.80;;;47.30;;
12707;SDS011;6418;50.824;4.718;2023-11-21T00:23:19;144.60;;;47.80;;
12707;SDS011;6418;50.824;4.718;2023-11-21T00:25:46;137.77;;;47.50;;
12707;SDS011;6418;50.824;4.718;2023-11-21T00:28:13;156.60;;;47.63;;
12707;SDS011;6418;50.824;4.718;2023-11-21T00:30:40;179.33;;;50.27;;
12707;SDS011;6418;50.824;4.718;2023-11-21T00:33:07;157.60;;;48.20;;
12707;SDS011;6418;50.824;4.718;2023-11-21T00:35:34;137.20;;;45.53;;
12707;SDS011;6418;50.824;4.718;2023-11-21T00:38:01;139.83;;;46.63;;
12707;SDS011;6418;50.824;4.718;2023-11-21T00:40:29;149.60;;;46.50;;
12707;SDS011;6418;50.824;4.718;2023-11-21T00:42:58;189.47;;;50.90;;
12707;SDS011;6418;50.824;4.718;2023-11-21T00:45:25;189.20;;;49.07;;
12707;SDS011;6418;50.824;4.718;2023-11-21T00:47:51;170.00;;;48.90;;
12707;SDS011;6418;50.824;4.718;2023-11-21T00:50:18;166.63;;;49.37;;
12707;SDS011;6418;50.824;4.718;2023-11-21T00:52:45;156.80;;;47.43;;
12707;SDS011;6418;50.824;4.718;2023-11-21T00:55:12;170.37;;;49.13;;
12707;SDS011;6418;50.824;4.718;2023-11-21T00:57:41;166.00;;;47.27;;
12707;SDS011;6418;50.824;4.718;2023-11-21T01:00:08;174.30;;;46.03;;
12707;SDS011;6418;50.824;4.718;2023-11-21T01:02:38;186.80;;;48.20;;
12707;SDS011;6418;50.824;4.718;2023-11-21T01:05:05;150.27;;;44.43;;
12707;SDS011;6418;50.824;4.718;2023-11-21T01:07:33;187.90;;;47.60;;
12707;SDS011;6418;50.824;4.718;2023-11-21T01:10:01;200.40;;;45.17;;
12707;SDS011;6418;50.824;4.718;2023-11-21T01:12:30;205.53;;;47.77;;
12707;SDS011;6418;50.824;4.718;2023-11-21T01:14:59;214.67;;;47.57;;
12707;SDS011;6418;50.824;4.718;2023-11-21T01:17:26;203.23;;;45.30;;
12707;SDS011;6418;50.824;4.718;2023-11-21T01:19:53;309.50;;;50.13;;
12707;SDS011;6418;50.824;4.718;2023-11-21T01:22:21;159.20;;;44.00;;
12707;SDS011;6418;50.824;4.718;2023-11-21T01:24:50;194.67;;;43.37;;
12707;SDS011;6418;50.824;4.718;2023-11-21T01:27:18;195.33;;;42.30;;
12707;SDS011;6418;50.824;4.718;2023-11-21T01:29:45;163.40;;;42.03;;
12707;SDS011;6418;50.824;4.718;2023-11-21T01:32:13;193.87;;;42.77;;
12707;SDS011;6418;50.824;4.718;2023-11-21T01:34:40;200.60;;;43.00;;
12707;SDS011;6418;50.824;4.718;2023-11-21T01:37:06;204.33;;;41.27;;
12707;SDS011;6418;50.824;4.718;2023-11-21T01:39:37;184.43;;;40.73;;
12707;SDS011;6418;50.824;4.718;2023-11-21T01:42:04;255.63;;;42.27;;
12707;SDS011;6418;50.824;4.718;2023-11-21T01:44:32;212.00;;;40.70;;
12707;SDS011;6418;50.824;4.718;2023-11-21T01:46:59;135.43;;;37.00;;
12707;SDS011;6418;50.824;4.718;2023-11-21T01:49:31;177.93;;;40.83;;
12707;SDS011;6418;50.824;4.718;2023-11-21T01:51:59;248.60;;;41.90;;
12707;SDS011;6418;50.824;4.718;2023-11-21T01:54:26;175.10;;;40.00;;
12707;SDS011;6418;50.824;4.718;2023-11-21T01:56:56;149.27;;;38.90;;
12707;SDS011;6418;50.824;4.718;2023-11-21T01:59:27;164.03;;;40.20;;
12707;SDS011;6418;50.824;4.718;2023-11-21T02:02:00;165.17;;;39.13;;
12707;SDS011;6418;50.824;4.718;2023-11-21T02:04:27;176.63;;;40.17;;
12707;SDS011;6418;50.824;4.718;2023-11-21T02:06:55;238.23;;;41.43;;
12707;SDS011;6418;50.824;4.718;2023-11-21T02:09:24;149.87;;;37.37;;
12707;SDS011;6418;50.824;4.718;2023-11-21T02:11:52;149.37;;;38.77;;
12707;SDS011;6418;50.824;4.718;2023-11-21T02:14:19;150.40;;;39.13;;
12707;SDS011;6418;50.824;4.718;2023-11-21T02:16:47;160.00;;;39.33;;
12707;SDS011;6418;50.824;4.718;2023-11-21T02:19:16;164.20;;;40.40;;
12707;SDS011;6418;50.824;4.718;2023-11-21T02:21:47;179.00;;;39.87;;
12707;SDS011;6418;50.824;4.718;2023-11-21T02:24:18;165.50;;;41.23;;
12707;SDS011;6418;50.824;4.718;2023-11-21T02:26:45;158.63;;;40.63;;
12707;SDS011;6418;50.824;4.718;2023-11-21T02:29:12;177.33;;;41.63;;
12707;SDS011;6418;50.824;4.718;2023-11-21T02:31:41;158.93;;;39.70;;
12707;SDS011;6418;50.824;4.718;2023-11-21T02:34:13;172.87;;;42.53;;
12707;SDS011;6418;50.824;4.718;2023-11-21T02:36:40;161.87;;;40.37;;
12707;SDS011;6418;50.824;4.718;2023-11-21T02:39:07;182.97;;;41.90;;
12707;SDS011;6418;50.824;4.718;2023-11-21T02:41:35;185.13;;;41.93;;
12707;SDS011;6418;50.824;4.718;2023-11-21T02:44:04;149.10;;;40.03;;
12707;SDS011;6418;50.824;4.718;2023-11-21T02:46:31;162.37;;;40.10;;
12707;SDS011;6418;50.824;4.718;2023-11-21T02:48:59;168.77;;;41.80;;
12707;SDS011;6418;50.824;4.718;2023-11-21T02:51:26;160.10;;;41.07;;
12707;SDS011;6418;50.824;4.718;2023-11-21T02:53:53;164.73;;;43.17;;
12707;SDS011;6418;50.824;4.718;2023-11-21T02:56:23;246.80;;;44.30;;
12707;SDS011;6418;50.824;4.718;2023-11-21T02:58:52;200.50;;;43.60;;
12707;SDS011;6418;50.824;4.718;2023-11-21T03:01:19;174.83;;;42.57;;
12707;SDS011;6418;50.824;4.718;2023-11-21T03:03:46;170.50;;;41.83;;
12707;SDS011;6418;50.824;4.718;2023-11-21T03:06:16;194.00;;;41.47;;
12707;SDS011;6418;50.824;4.718;2023-11-21T03:08:43;171.70;;;43.20;;
12707;SDS011;6418;50.824;4.718;2023-11-21T03:11:09;178.07;;;42.30;;
12707;SDS011;6418;50.824;4.718;2023-11-21T03:13:37;167.93;;;40.93;;
12707;SDS011;6418;50.824;4.718;2023-11-21T03:16:07;194.03;;;43.40;;
12707;SDS011;6418;50.824;4.718;2023-11-21T03:18:35;198.73;;;40.83;;
12707;SDS011;6418;50.824;4.718;2023-11-21T03:21:02;185.27;;;40.93;;
12707;SDS011;6418;50.824;4.718;2023-11-21T03:23:29;217.03;;;42.73;;
12707;SDS011;6418;50.824;4.718;2023-11-21T03:25:56;163.57;;;41.83;;
12707;SDS011;6418;50.824;4.718;2023-11-21T03:28:23;187.00;;;41.90;;
12707;SDS011;6418;50.824;4.718;2023-11-21T03:30:50;183.30;;;41.97;;
12707;SDS011;6418;50.824;4.718;2023-11-21T03:33:18;225.53;;;44.00;;
12707;SDS011;6418;50.824;4.718;2023-11-21T03:35:45;277.93;;;44.33;;
12707;SDS011;6418;50.824;4.718;2023-11-21T03:38:12;167.10;;;42.47;;
12707;SDS011;6418;50.824;4.718;2023-11-21T03:40:39;190.70;;;42.07;;
12707;SDS011;6418;50.824;4.718;2023-11-21T03:43:06;204.47;;;42.60;;
12707;SDS011;6418;50.824;4.718;2023-11-21T03:45:32;216.60;;;42.53;;
12707;SDS011;6418;50.824;4.718;2023-11-21T03:47:59;182.63;;;41.30;;
12707;SDS011;6418;50.824;4.718;2023-11-21T03:50:28;175.50;;;41.73;;
12707;SDS011;6418;50.824;4.718;2023-11-21T03:52:56;160.13;;;40.40;;
12707;SDS011;6418;50.824;4.718;2023-11-21T03:55:23;164.47;;;40.93;;
12707;SDS011;6418;50.824;4.718;2023-11-21T03:57:50;157.27;;;39.50;;
12707;SDS011;6418;50.824;4.718;2023-11-21T04:00:17;127.33;;;39.40;;
12707;SDS011;6418;50.824;4.718;2023-11-21T04:02:45;145.63;;;39.80;;
12707;SDS011;6418;50.824;4.718;2023-11-21T04:05:12;197.40;;;41.13;;
12707;SDS011;6418;50.824;4.718;2023-11-21T04:07:41;166.57;;;40.40;;
12707;SDS011;6418;50.824;4.718;2023-11-21T04:10:08;149.27;;;37.47;;
12707;SDS011;6418;50.824;4.718;2023-11-21T04:12:37;164.63;;;40.47;;
12707;SDS011;6418;50.824;4.718;2023-11-21T04:15:05;152.80;;;38.73;;
12707;SDS011;6418;50.824;4.718;2023-11-21T04:17:33;152.73;;;38.13;;
12707;SDS011;6418;50.824;4.718;2023-11-21T04:20:01;165.43;;;38.37;;
12707;SDS011;6418;50.824;4.718;2023-11-21T04:22:28;135.03;;;37.63;;
12707;SDS011;6418;50.824;4.718;2023-11-21T04:24:57;139.10;;;36.10;;
12707;SDS011;6418;50.824;4.718;2023-11-21T04:27:23;171.93;;;38.27;;
12707;SDS011;6418;50.824;4.718;2023-11-21T04:29:50;245.67;;;41.40;;
12707;SDS011;6418;50.824;4.718;2023-11-21T04:32:17;146.10;;;36.13;;
12707;SDS011;6418;50.824;4.718;2023-11-21T04:34:44;135.60;;;35.77;;
12707;SDS011;6418;50.824;4.718;2023-11-21T04:37:11;148.63;;;38.50;;
12707;SDS011;6418;50.824;4.718;2023-11-21T04:39:38;155.20;;;38.07;;
12707;SDS011;6418;50.824;4.718;2023-11-21T04:42:06;139.30;;;37.47;;
12707;SDS011;6418;50.824;4.718;2023-11-21T04:44:33;141.87;;;37.83;;
12707;SDS011;6418;50.824;4.718;2023-11-21T04:47:00;142.83;;;38.17;;
12707;SDS011;6418;50.824;4.718;2023-11-21T04:49:29;158.83;;;37.87;;
12707;SDS011;6418;50.824;4.718;2023-11-21T04:51:56;118.10;;;34.97;;
12707;SDS011;6418;50.824;4.718;2023-11-21T04:54:23;135.90;;;35.73;;
12707;SDS011;6418;50.824;4.718;2023-11-21T04:56:50;126.53;;;37.20;;
12707;SDS011;6418;50.824;4.718;2023-11-21T04:59:18;144.83;;;37.27;;
12707;SDS011;6418;50.824;4.718;2023-11-21T05:01:45;139.20;;;35.77;;
12707;SDS011;6418;50.824;4.718;2023-11-21T05:04:12;140.40;;;36.50;;
12707;SDS011;6418;50.824;4.718;2023-11-21T05:06:39;115.47;;;35.63;;
12707;SDS011;6418;50.824;4.718;2023-11-21T05:09:06;144.53;;;36.50;;
12707;SDS011;6418;50.824;4.718;2023-11-21T05:11:36;115.27;;;36.23;;
12707;SDS011;6418;50.824;4.718;2023-11-21T05:14:06;134.13;;;37.83;;
12707;SDS011;6418;50.824;4.718;2023-11-21T05:16:36;123.57;;;36.10;;
12707;SDS011;6418;50.824;4.718;2023-11-21T05:19:03;154.80;;;37.97;;
12707;SDS011;6418;50.824;4.718;2023-11-21T05:21:30;122.50;;;34.30;;
12707;SDS011;6418;50.824;4.718;2023-11-21T05:23:57;112.43;;;34.20;;
12707;SDS011;6418;50.824;4.718;2023-11-21T05:26:24;113.57;;;35.20;;
12707;SDS011;6418;50.824;4.718;2023-11-21T05:28:51;119.23;;;35.17;;
12707;SDS011;6418;50.824;4.718;2023-11-21T05:31:18;131.20;;;35.27;;
12707;SDS011;6418;50.824;4.718;2023-11-21T05:33:46;114.40;;;34.47;;
12707;SDS011;6418;50.824;4.718;2023-11-21T05:36:13;122.90;;;34.23;;
12707;SDS011;6418;50.824;4.718;2023-11-21T05:38:40;122.60;;;34.77;;
12707;SDS011;6418;50.824;4.718;2023-11-21T05:41:07;118.13;;;34.40;;
12707;SDS011;6418;50.824;4.718;2023-11-21T05:43:36;129.37;;;33.30;;
12707;SDS011;6418;50.824;4.718;2023-11-21T05:46:03;122.37;;;35.13;;
12707;SDS011;6418;50.824;4.718;2023-11-21T05:48:30;141.33;;;35.47;;
12707;SDS011;6418;50.824;4.718;2023-11-21T05:50:59;146.13;;;35.33;;
12707;SDS011;6418;50.824;4.718;2023-11-21T05:53:26;116.87;;;35.23;;
12707;SDS011;6418;50.824;4.718;2023-11-21T05:55:53;117.80;;;33.43;;
12707;SDS011;6418;50.824;4.718;2023-11-21T05:58:20;110.83;;;33.30;;
12707;SDS011;6418;50.824;4.718;2023-11-21T06:00:47;134.27;;;35.10;;
12707;SDS011;6418;50.824;4.718;2023-11-21T06:03:14;120.80;;;33.53;;
12707;SDS011;6418;50.824;4.718;2023-11-21T06:05:42;112.33;;;33.47;;
12707;SDS011;6418;50.824;4.718;2023-11-21T06:08:10;129.17;;;34.50;;
12707;SDS011;6418;50.824;4.718;2023-11-21T06:10:37;108.77;;;32.60;;
12707;SDS011;6418;50.824;4.718;2023-11-21T06:13:05;129.17;;;33.50;;
12707;SDS011;6418;50.824;4.718;2023-11-21T06:15:33;126.27;;;34.80;;
12707;SDS011;6418;50.824;4.718;2023-11-21T06:18:00;125.63;;;36.03;;
12707;SDS011;6418;50.824;4.718;2023-11-21T06:20:27;153.67;;;36.10;;
12707;SDS011;6418;50.824;4.718;2023-11-21T06:22:54;171.83;;;37.30;;
12707;SDS011;6418;50.824;4.718;2023-11-21T06:25:22;148.37;;;36.13;;
12707;SDS011;6418;50.824;4.718;2023-11-21T06:27:49;171.10;;;38.13;;
12707;SDS011;6418;50.824;4.718;2023-11-21T06:30:18;132.23;;;34.70;;
12707;SDS011;6418;50.824;4.718;2023-11-21T06:32:46;155.77;;;36.97;;
12707;SDS011;6418;50.824;4.718;2023-11-21T06:35:15;131.00;;;35.77;;
12707;SDS011;6418;50.824;4.718;2023-11-21T06:37:41;176.97;;;40.47;;
12707;SDS011;6418;50.824;4.718;2023-11-21T06:40:12;155.77;;;36.77;;
12707;SDS011;6418;50.824;4.718;2023-11-21T06:42:41;203.67;;;40.97;;
12707;SDS011;6418;50.824;4.718;2023-11-21T06:45:09;195.73;;;40.27;;
12707;SDS011;6418;50.824;4.718;2023-11-21T06:47:36;193.87;;;40.90;;
12707;SDS011;6418;50.824;4.718;2023-11-21T06:50:05;170.03;;;38.20;;
12707;SDS011;6418;50.824;4.718;2023-11-21T06:52:32;196.03;;;40.37;;
12707;SDS011;6418;50.824;4.718;2023-11-21T06:54:59;173.27;;;38.50;;
12707;SDS011;6418;50.824;4.718;2023-11-21T06:57:26;196.07;;;38.70;;
12707;SDS011;6418;50.824;4.718;2023-11-21T06:59:54;167.50;;;39.10;;
12707;SDS011;6418;50.824;4.718;2023-11-21T07:02:22;163.23;;;39.70;;
12707;SDS011;6418;50.824;4.718;2023-11-21T07:04:49;162.27;;;40.00;;
12707;SDS011;6418;50.824;4.718;2023-11-21T07:07:16;152.63;;;37.73;;
12707;SDS011;6418;50.824;4.718;2023-11-21T07:09:44;186.37;;;40.27;;
12707;SDS011;6418;50.824;4.718;2023-11-21T07:12:10;191.80;;;39.63;;
12707;SDS011;6418;50.824;4.718;2023-11-21T07:14:37;171.20;;;37.57;;
12707;SDS011;6418;50.824;4.718;2023-11-21T07:17:09;171.80;;;39.30;;
12707;SDS011;6418;50.824;4.718;2023-11-21T07:19:37;167.20;;;39.03;;
12707;SDS011;6418;50.824;4.718;2023-11-21T07:22:04;181.90;;;42.13;;
12707;SDS011;6418;50.824;4.718;2023-11-21T07:24:31;220.23;;;46.57;;
12707;SDS011;6418;50.824;4.718;2023-11-21T07:26:58;153.60;;;40.60;;
12707;SDS011;6418;50.824;4.718;2023-11-21T07:29:26;152.07;;;41.40;;
12707;SDS011;6418;50.824;4.718;2023-11-21T07:31:54;159.30;;;37.30;;
12707;SDS011;6418;50.824;4.718;2023-11-21T07:34:23;131.40;;;37.47;;
12707;SDS011;6418;50.824;4.718;2023-11-21T07:36:49;144.57;;;37.83;;
12707;SDS011;6418;50.824;4.718;2023-11-21T07:39:17;137.87;;;37.80;;
12707;SDS011;6418;50.824;4.718;2023-11-21T07:41:44;154.83;;;37.23;;
12707;SDS011;6418;50.824;4.718;2023-11-21T07:44:13;140.63;;;35.97;;
12707;SDS011;6418;50.824;4.718;2023-11-21T07:46:41;140.03;;;35.80;;
12707;SDS011;6418;50.824;4.718;2023-11-21T07:49:08;136.43;;;36.97;;
12707;SDS011;6418;50.824;4.718;2023-11-21T07:51:36;133.57;;;37.27;;
12707;SDS011;6418;50.824;4.718;2023-11-21T07:54:03;146.57;;;38.80;;
12707;SDS011;6418;50.824;4.718;2023-11-21T07:56:31;151.83;;;39.13;;
12707;SDS011;6418;50.824;4.718;2023-11-21T07:58:58;144.37;;;38.13;;
12707;SDS011;6418;50.824;4.718;2023-11-21T08:01:25;139.90;;;38.27;;
12707;SDS011;6418;50.824;4.718;2023-11-21T08:03:53;137.03;;;37.07;;
12707;SDS011;6418;50.824;4.718;2023-11-21T08:06:22;131.87;;;38.10;;
12707;SDS011;6418;50.824;4.718;2023-11-21T08:08:51;148.37;;;38.47;;
12707;SDS011;6418;50.824;4.718;2023-11-21T08:11:18;123.03;;;38.83;;
12707;SDS011;6418;50.824;4.718;2023-11-21T08:13:46;150.00;;;37.37;;
12707;SDS011;6418;50.824;4.718;2023-11-21T08:16:13;121.30;;;36.97;;
12707;SDS011;6418;50.824;4.718;2023-11-21T08:18:41;128.47;;;36.50;;
12707;SDS011;6418;50.824;4.718;2023-11-21T08:21:08;138.73;;;36.63;;
12707;SDS011;6418;50.824;4.718;2023-11-21T08:23:37;123.80;;;37.30;;
12707;SDS011;6418;50.824;4.718;2023-11-21T08:26:06;120.23;;;37.67;;
12707;SDS011;6418;50.824;4.718;2023-11-21T08:28:34;119.90;;;36.20;;
12707;SDS011;6418;50.824;4.718;2023-11-21T08:31:00;109.40;;;36.23;;
12707;SDS011;6418;50.824;4.718;2023-11-21T08:33:27;121.40;;;37.93;;
12707;SDS011;6418;50.824;4.718;2023-11-21T08:35:54;115.80;;;37.50;;
12707;SDS011;6418;50.824;4.718;2023-11-21T08:38:21;131.30;;;38.13;;
12707;SDS011;6418;50.824;4.718;2023-11-21T08:40:48;127.27;;;39.63;;
12707;SDS011;6418;50.824;4.718;2023-11-21T08:43:16;127.83;;;39.20;;
12707;SDS011;6418;50.824;4.718;2023-11-21T08:45:45;129.90;;;40.00;;
12707;SDS011;6418;50.824;4.718;2023-11-21T08:48:12;133.83;;;40.70;;
12707;SDS011;6418;50.824;4.718;2023-11-21T08:50:39;131.67;;;40.70;;
12707;SDS011;6418;50.824;4.718;2023-11-21T08:53:05;118.07;;;37.67;;
12707;SDS011;6418;50.824;4.718;2023-11-21T08:55:32;116.30;;;40.13;;
12707;SDS011;6418;50.824;4.718;2023-11-21T08:58:02;127.27;;;41.03;;
12707;SDS011;6418;50.824;4.718;2023-11-21T09:00:31;131.57;;;39.80;;
12707;SDS011;6418;50.824;4.718;2023-11-21T09:02:58;116.93;;;40.80;;
12707;SDS011;6418;50.824;4.718;2023-11-21T09:05:27;112.27;;;39.67;;
12707;SDS011;6418;50.824;4.718;2023-11-21T09:07:53;104.13;;;40.00;;
12707;SDS011;6418;50.824;4.718;2023-11-21T09:10:20;109.97;;;40.57;;
12707;SDS011;6418;50.824;4.718;2023-11-21T09:12:48;118.40;;;40.73;;
12707;SDS011;6418;50.824;4.718;2023-11-21T09:15:17;113.97;;;41.00;;
12707;SDS011;6418;50.824;4.718;2023-11-21T09:17:46;105.90;;;41.00;;
12707;SDS011;6418;50.824;4.718;2023-11-21T09:20:14;108.67;;;41.63;;
12707;SDS011;6418;50.824;4.718;2023-11-21T09:22:41;113.43;;;42.70;;
12707;SDS011;6418;50.824;4.718;2023-11-21T09:25:09;121.17;;;44.33;;
12707;SDS011;6418;50.824;4.718;2023-11-21T09:27:36;113.60;;;42.40;;
12707;SDS011;6418;50.824;4.718;2023-11-21T09:30:03;117.53;;;44.80;;
12707;SDS011;6418;50.824;4.718;2023-11-21T09:32:34;121.20;;;44.40;;
12707;SDS011;6418;50.824;4.718;2023-11-21T09:35:03;137.70;;;44.67;;
12707;SDS011;6418;50.824;4.718;2023-11-21T09:37:33;137.53;;;47.10;;
12707;SDS011;6418;50.824;4.718;2023-11-21T09:40:01;140.73;;;46.50;;
12707;SDS011;6418;50.824;4.718;2023-11-21T09:42:29;125.03;;;46.37;;
12707;SDS011;6418;50.824;4.718;2023-11-21T09:45:03;120.20;;;44.47;;
12707;SDS011;6418;50.824;4.718;2023-11-21T09:47:35;131.83;;;46.87;;
12707;SDS011;6418;50.824;4.718;2023-11-21T09:50:06;119.53;;;45.10;;
12707;SDS011;6418;50.824;4.718;2023-11-21T09:52:38;111.87;;;44.30;;
12707;SDS011;6418;50.824;4.718;2023-11-21T09:55:13;118.83;;;45.63;;
12707;SDS011;6418;50.824;4.718;2023-11-21T09:57:43;106.47;;;44.17;;
12707;SDS011;6418;50.824;4.718;2023-11-21T10:00:13;122.87;;;44.30;;
12707;SDS011;6418;50.824;4.718;2023-11-21T10:02:43;121.60;;;43.33;;
12707;SDS011;6418;50.824;4.718;2023-11-21T10:05:11;123.83;;;43.70;;
12707;SDS011;6418;50.824;4.718;2023-11-21T10:07:38;132.47;;;45.07;;
12707;SDS011;6418;50.824;4.718;2023-11-21T10:10:08;127.80;;;43.07;;
12707;SDS011;6418;50.824;4.718;2023-11-21T10:12:35;107.63;;;42.67;;
12707;SDS011;6418;50.824;4.718;2023-11-21T10:15:03;120.83;;;41.93;;
12707;SDS011;6418;50.824;4.718;2023-11-21T10:17:36;96.63;;;38.00;;
12707;SDS011;6418;50.824;4.718;2023-11-21T10:20:08;103.60;;;40.87;;
12707;SDS011;6418;50.824;4.718;2023-11-21T10:22:38;95.40;;;39.00;;
12707;SDS011;6418;50.824;4.718;2023-11-21T10:25:07;92.63;;;38.23;;
12707;SDS011;6418;50.824;4.718;2023-11-21T10:27:34;95.53;;;39.23;;
12707;SDS011;6418;50.824;4.718;2023-11-21T10:30:04;95.53;;;39.13;;
12707;SDS011;6418;50.824;4.718;2023-11-21T10:32:32;98.13;;;39.23;;
12707;SDS011;6418;50.824;4.718;2023-11-21T10:34:59;85.50;;;36.17;;
12707;SDS011;6418;50.824;4.718;2023-11-21T10:37:33;85.00;;;36.23;;
12707;SDS011;6418;50.824;4.718;2023-11-21T10:40:00;86.23;;;33.67;;
12707;SDS011;6418;50.824;4.718;2023-11-21T10:42:26;84.40;;;33.93;;
12707;SDS011;6418;50.824;4.718;2023-11-21T10:44:54;87.13;;;34.00;;
12707;SDS011;6418;50.824;4.718;2023-11-21T10:47:21;100.77;;;35.03;;
12707;SDS011;6418;50.824;4.718;2023-11-21T10:49:48;99.33;;;35.40;;
12707;SDS011;6418;50.824;4.718;2023-11-21T10:52:16;96.20;;;34.33;;
12707;SDS011;6418;50.824;4.718;2023-11-21T10:54:47;106.03;;;35.57;;
12707;SDS011;6418;50.824;4.718;2023-11-21T10:57:17;92.90;;;34.50;;
12707;SDS011;6418;50.824;4.718;2023-11-21T10:59:46;107.83;;;35.93;;
12707;SDS011;6418;50.824;4.718;2023-11-21T11:02:19;99.77;;;36.17;;
12707;SDS011;6418;50.824;4.718;2023-11-21T11:04:50;89.70;;;33.20;;
12707;SDS011;6418;50.824;4.718;2023-11-21T11:07:18;86.03;;;33.47;;
12707;SDS011;6418;50.824;4.718;2023-11-21T11:09:49;81.80;;;32.10;;
12707;SDS011;6418;50.824;4.718;2023-11-21T11:12:17;84.57;;;33.53;;
12707;SDS011;6418;50.824;4.718;2023-11-21T11:14:44;75.97;;;30.53;;
12707;SDS011;6418;50.824;4.718;2023-11-21T11:17:11;76.50;;;31.27;;
12707;SDS011;6418;50.824;4.718;2023-11-21T11:19:39;73.83;;;31.30;;
12707;SDS011;6418;50.824;4.718;2023-11-21T11:22:08;73.53;;;30.27;;
12707;SDS011;6418;50.824;4.718;2023-11-21T11:24:53;73.23;;;30.80;;
12707;SDS011;6418;50.824;4.718;2023-11-21T11:27:40;68.07;;;28.90;;
12707;SDS011;6418;50.824;4.718;2023-11-21T11:30:17;69.40;;;29.30;;
12707;SDS011;6418;50.824;4.718;2023-11-21T11:32:58;66.33;;;29.40;;
12707;SDS011;6418;50.824;4.718;2023-11-21T11:35:34;69.43;;;29.33;;
12707;SDS011;6418;50.824;4.718;2023-11-21T11:38:04;62.97;;;29.10;;
12707;SDS011;6418;50.824;4.718;2023-11-21T11:40:45;62.40;;;27.90;;
12707;SDS011;6418;50.824;4.718;2023-11-21T11:43:12;64.70;;;29.90;;
12707;SDS011;6418;50.824;4.718;2023-11-21T11:45:40;70.87;;;29.83;;
12707;SDS011;6418;50.824;4.718;2023-11-21T11:48:07;66.97;;;30.17;;
12707;SDS011;6418;50.824;4.718;2023-11-21T11:50:41;65.30;;;30.00;;
12707;SDS011;6418;50.824;4.718;2023-11-21T11:53:28;71.73;;;30.70;;
12707;SDS011;6418;50.824;4.718;2023-11-21T11:58:52;68.97;;;29.43;;
12707;SDS011;6418;50.824;4.718;2023-11-21T12:01:19;66.30;;;30.27;;
12707;SDS011;6418;50.824;4.718;2023-11-21T12:07:01;55.20;;;26.47;;
12707;SDS011;6418;50.824;4.718;2023-11-21T12:09:29;56.50;;;27.23;;
12707;SDS011;6418;50.824;4.718;2023-11-21T12:11:59;52.23;;;24.27;;
12707;SDS011;6418;50.824;4.718;2023-11-21T12:14:28;46.80;;;24.40;;
12707;SDS011;6418;50.824;4.718;2023-11-21T12:16:55;46.33;;;24.03;;
12707;SDS011;6418;50.824;4.718;2023-11-21T12:19:22;48.73;;;23.20;;
12707;SDS011;6418;50.824;4.718;2023-11-21T12:21:49;45.07;;;22.47;;
12707;SDS011;6418;50.824;4.718;2023-11-21T12:24:17;39.17;;;20.73;;
12707;SDS011;6418;50.824;4.718;2023-11-21T12:26:44;40.20;;;21.37;;
12707;SDS011;6418;50.824;4.718;2023-11-21T12:29:12;37.47;;;20.60;;
12707;SDS011;6418;50.824;4.718;2023-11-21T12:31:40;39.23;;;22.47;;
12707;SDS011;6418;50.824;4.718;2023-11-21T12:34:07;39.80;;;21.33;;
12707;SDS011;6418;50.824;4.718;2023-11-21T12:36:36;36.83;;;20.87;;
12707;SDS011;6418;50.824;4.718;2023-11-21T12:39:03;39.67;;;20.33;;
12707;SDS011;6418;50.824;4.718;2023-11-21T12:41:31;33.27;;;19.40;;
12707;SDS011;6418;50.824;4.718;2023-11-21T12:43:57;32.90;;;18.80;;
12707;SDS011;6418;50.824;4.718;2023-11-21T12:46:26;31.73;;;17.70;;
12707;SDS011;6418;50.824;4.718;2023-11-21T12:48:55;30.47;;;17.57;;
12707;SDS011;6418;50.824;4.718;2023-11-21T12:51:23;31.67;;;17.00;;
12707;SDS011;6418;50.824;4.718;2023-11-21T12:53:50;28.00;;;16.93;;
12707;SDS011;6418;50.824;4.718;2023-11-21T12:56:18;29.60;;;16.87;;
12707;SDS011;6418;50.824;4.718;2023-11-21T12:58:48;31.27;;;17.30;;
12707;SDS011;6418;50.824;4.718;2023-11-21T13:01:15;25.20;;;14.13;;
12707;SDS011;6418;50.824;4.718;2023-11-21T13:03:47;26.17;;;15.30;;
12707;SDS011;6418;50.824;4.718;2023-11-21T13:06:16;28.10;;;15.10;;
12707;SDS011;6418;50.824;4.718;2023-11-21T13:08:45;27.03;;;15.03;;
12707;SDS011;6418;50.824;4.718;2023-11-21T13:11:12;23.67;;;12.93;;
12707;SDS011;6418;50.824;4.718;2023-11-21T13:13:40;19.67;;;12.20;;
12707;SDS011;6418;50.824;4.718;2023-11-21T13:16:08;21.10;;;11.37;;
12707;SDS011;6418;50.824;4.718;2023-11-21T13:18:36;23.43;;;12.70;;
12707;SDS011;6418;50.824;4.718;2023-11-21T13:21:07;22.57;;;12.97;;
12707;SDS011;6418;50.824;4.718;2023-11-21T13:23:38;24.60;;;12.00;;
12707;SDS011;6418;50.824;4.718;2023-11-21T13:26:06;21.00;;;11.87;;
12707;SDS011;6418;50.824;4.718;2023-11-21T13:28:34;20.67;;;11.67;;
12707;SDS011;6418;50.824;4.718;2023-11-21T13:31:02;20.93;;;11.50;;
12707;SDS011;6418;50.824;4.718;2023-11-21T13:33:34;18.03;;;10.13;;
12707;SDS011;6418;50.824;4.718;2023-11-21T13:36:03;16.90;;;9.50;;
12707;SDS011;6418;50.824;4.718;2023-11-21T13:38:34;16.50;;;9.90;;
12707;SDS011;6418;50.824;4.718;2023-11-21T13:41:02;16.63;;;8.77;;
12707;SDS011;6418;50.824;4.718;2023-11-21T13:43:32;16.37;;;9.07;;
12707;SDS011;6418;50.824;4.718;2023-11-21T13:45:59;16.93;;;9.60;;
12707;SDS011;6418;50.824;4.718;2023-11-21T13:48:29;15.93;;;9.20;;
12707;SDS011;6418;50.824;4.718;2023-11-21T13:51:05;17.03;;;9.57;;
12707;SDS011;6418;50.824;4.718;2023-11-21T13:53:42;18.17;;;11.07;;
12707;SDS011;6418;50.824;4.718;2023-11-21T13:56:10;17.50;;;10.57;;
12707;SDS011;6418;50.824;4.718;2023-11-21T13:58:41;18.07;;;10.33;;
12707;SDS011;6418;50.824;4.718;2023-11-21T14:01:12;19.00;;;10.93;;
12707;SDS011;6418;50.824;4.718;2023-11-21T14:03:57;19.10;;;10.50;;
12707;SDS011;6418;50.824;4.718;2023-11-21T14:06:33;17.70;;;9.70;;
12707;SDS011;6418;50.824;4.718;2023-11-21T14:09:12;18.20;;;10.40;;
12707;SDS011;6418;50.824;4.718;2023-11-21T14:11:47;20.53;;;11.40;;
12707;SDS011;6418;50.824;4.718;2023-11-21T14:14:18;19.63;;;10.57;;
12707;SDS011;6418;50.824;4.718;2023-11-21T14:16:45;20.03;;;10.57;;
12707;SDS011;6418;50.824;4.718;2023-11-21T14:19:12;18.23;;;10.20;;
12707;SDS011;6418;50.824;4.718;2023-11-21T14:21:42;17.77;;;10.17;;
12707;SDS011;6418;50.824;4.718;2023-11-21T14:24:11;17.80;;;10.47;;
12707;SDS011;6418;50.824;4.718;2023-11-21T14:26:42;17.50;;;9.97;;
12707;SDS011;6418;50.824;4.718;2023-11-21T14:29:10;16.33;;;10.10;;
12707;SDS011;6418;50.824;4.718;2023-11-21T14:31:39;17.83;;;10.90;;
12707;SDS011;6418;50.824;4.718;2023-11-21T14:34:07;19.37;;;10.67;;
12707;SDS011;6418;50.824;4.718;2023-11-21T14:36:34;17.67;;;10.50;;
12707;SDS011;6418;50.824;4.718;2023-11-21T14:39:01;18.37;;;11.37;;